aviador You're here:

DTTL Decoded Metar

KELIBIA in TUNISIA
Report Time2017-11-19 21:00:00
UTC Time2017-11-19 21:46:01
Flight Rules unknown UNKNOWN
WindVRB at 04 kt
VisibilityN/A
Phenomena:N/A
Clouds:N/A
Expected CloudBase > 800 ft AGL from Temp-Dew spread
CeilingNone
Temp14°C (ISA -1)
Dew Point12°C (88% RH)
AAT13.2°C
QNH1018 hPa
Density Alt20 ft
Elevation98 ft
Report Wrong Elevation
Raw Report
DTTL 192100Z AUTO VRB04KT NCD 14/12 Q1018=

Extra information for DTTL:More info

Metar Taf Metar & Taf Last 4 Metars F.Rules Stats Wind Profile Meteogram Temp Stats Airport Information Weather charts Add Link Nearby VenuesMetar ALERT Operation Metar Decoded Social comments